sensor_id;sensor_type;location;lat;lon;timestamp;pressure;altitude;pressure_sealevel;temperature;humidity
21504;BME280;10913;51.992;9.228;2023-05-02T00:02:24;100357.50;;;13.61;98.30
21504;BME280;10913;51.992;9.228;2023-05-02T00:04:50;100351.31;;;13.60;98.00
21504;BME280;10913;51.992;9.228;2023-05-02T00:07:15;100346.88;;;13.61;97.58
21504;BME280;10913;51.992;9.228;2023-05-02T00:09:41;100343.31;;;13.62;97.22
21504;BME280;10913;51.992;9.228;2023-05-02T00:12:06;100350.38;;;13.63;97.46
21504;BME280;10913;51.992;9.228;2023-05-02T00:14:31;100348.66;;;13.60;97.59
21504;BME280;10913;51.992;9.228;2023-05-02T00:16:57;100351.38;;;13.59;97.40
21504;BME280;10913;51.992;9.228;2023-05-02T00:19:22;100349.56;;;13.59;97.44
21504;BME280;10913;51.992;9.228;2023-05-02T00:21:48;100350.50;;;13.57;97.47
21504;BME280;10913;51.992;9.228;2023-05-02T00:24:14;100347.88;;;13.55;97.77
21504;BME280;10913;51.992;9.228;2023-05-02T00:26:40;100361.13;;;13.57;97.51
21504;BME280;10913;51.992;9.228;2023-05-02T00:29:05;100359.41;;;13.54;98.03
21504;BME280;10913;51.992;9.228;2023-05-02T00:31:31;100347.09;;;13.49;98.97
21504;BME280;10913;51.992;9.228;2023-05-02T00:33:56;100359.56;;;13.43;99.64
21504;BME280;10913;51.992;9.228;2023-05-02T00:36:22;100359.66;;;13.39;99.92
21504;BME280;10913;51.992;9.228;2023-05-02T00:38:47;100366.81;;;13.35;100.00
21504;BME280;10913;51.992;9.228;2023-05-02T00:41:12;100371.13;;;13.39;99.80
21504;BME280;10913;51.992;9.228;2023-05-02T00:43:38;100365.81;;;13.41;100.00
21504;BME280;10913;51.992;9.228;2023-05-02T00:46:04;100363.19;;;13.39;100.00
21504;BME280;10913;51.992;9.228;2023-05-02T00:48:29;100365.91;;;13.36;100.00
21504;BME280;10913;51.992;9.228;2023-05-02T00:50:54;100375.66;;;13.34;100.00
21504;BME280;10913;51.992;9.228;2023-05-02T00:53:21;100370.38;;;13.34;100.00
21504;BME280;10913;51.992;9.228;2023-05-02T00:55:47;100367.69;;;13.36;100.00
21504;BME280;10913;51.992;9.228;2023-05-02T00:58:15;100371.13;;;13.39;99.81
21504;BME280;10913;51.992;9.228;2023-05-02T01:03:37;100362.19;;;13.45;99.62
21504;BME280;10913;51.992;9.228;2023-05-02T01:14:14;100364.88;;;13.43;98.92
21504;BME280;10913;51.992;9.228;2023-05-02T01:16:40;100369.28;;;13.44;98.62
21504;BME280;10913;51.992;9.228;2023-05-02T01:19:28;100369.25;;;13.46;98.63
21504;BME280;10913;51.992;9.228;2023-05-02T01:21:55;100373.69;;;13.45;98.41
21504;BME280;10913;51.992;9.228;2023-05-02T01:24:25;100366.59;;;13.48;98.89
21504;BME280;10913;51.992;9.228;2023-05-02T01:26:58;100371.00;;;13.49;98.46
21504;BME280;10913;51.992;9.228;2023-05-02T01:29:28;100378.94;;;13.50;97.98
21504;BME280;10913;51.992;9.228;2023-05-02T01:31:54;100374.53;;;13.49;97.74
21504;BME280;10913;51.992;9.228;2023-05-02T01:34:21;100380.72;;;13.50;97.71
21504;BME280;10913;51.992;9.228;2023-05-02T01:36:49;100390.44;;;13.49;97.94
21504;BME280;10913;51.992;9.228;2023-05-02T01:39:18;100385.19;;;13.46;98.01
21504;BME280;10913;51.992;9.228;2023-05-02T01:41:45;100393.22;;;13.41;98.30
21504;BME280;10913;51.992;9.228;2023-05-02T01:44:14;100380.84;;;13.40;98.20
21504;BME280;10913;51.992;9.228;2023-05-02T01:46:42;100384.41;;;13.39;97.93
21504;BME280;10913;51.992;9.228;2023-05-02T01:49:09;100391.53;;;13.37;96.89
21504;BME280;10913;51.992;9.228;2023-05-02T01:51:41;100402.97;;;13.41;95.73
21504;BME280;10913;51.992;9.228;2023-05-02T01:54:08;100405.59;;;13.42;94.81
21504;BME280;10913;51.992;9.228;2023-05-02T01:56:37;100405.53;;;13.45;94.63
21504;BME280;10913;51.992;9.228;2023-05-02T01:59:09;100409.09;;;13.44;94.79
21504;BME280;10913;51.992;9.228;2023-05-02T02:01:36;100410.88;;;13.44;94.75
21504;BME280;10913;51.992;9.228;2023-05-02T02:04:03;100409.13;;;13.43;94.59
21504;BME280;10913;51.992;9.228;2023-05-02T02:06:31;100414.44;;;13.41;95.42
21504;BME280;10913;51.992;9.228;2023-05-02T02:08:56;100419.78;;;13.40;95.75
21504;BME280;10913;51.992;9.228;2023-05-02T02:11:26;100418.97;;;13.38;95.98
21504;BME280;10913;51.992;9.228;2023-05-02T02:13:59;100411.91;;;13.35;96.16
21504;BME280;10913;51.992;9.228;2023-05-02T02:16:29;100414.59;;;13.34;96.12
21504;BME280;10913;51.992;9.228;2023-05-02T02:18:56;100419.03;;;13.33;96.05
21504;BME280;10913;51.992;9.228;2023-05-02T02:21:24;100418.16;;;13.33;96.56
21504;BME280;10913;51.992;9.228;2023-05-02T02:23:54;100416.44;;;13.29;96.88
21504;BME280;10913;51.992;9.228;2023-05-02T02:26:22;100420.91;;;13.25;96.81
21504;BME280;10913;51.992;9.228;2023-05-02T02:28:47;100425.34;;;13.25;96.74
21504;BME280;10913;51.992;9.228;2023-05-02T02:31:13;100424.50;;;13.21;97.24
21504;BME280;10913;51.992;9.228;2023-05-02T02:33:38;100432.50;;;13.20;97.64
21504;BME280;10913;51.992;9.228;2023-05-02T02:36:11;100428.16;;;13.16;98.07
21504;BME280;10913;51.992;9.228;2023-05-02T02:42:00;100434.38;;;13.10;97.91
21504;BME280;10913;51.992;9.228;2023-05-02T02:49:43;100438.75;;;13.14;95.57
21504;BME280;10913;51.992;9.228;2023-05-02T02:52:26;100439.66;;;13.13;95.50
21504;BME280;10913;51.992;9.228;2023-05-02T02:54:59;100443.19;;;13.14;94.76
21504;BME280;10913;51.992;9.228;2023-05-02T03:00:20;100447.50;;;13.21;94.69
21504;BME280;10913;51.992;9.228;2023-05-02T03:02:47;100451.00;;;13.23;94.68
21504;BME280;10913;51.992;9.228;2023-05-02T03:05:12;100456.31;;;13.23;95.19
21504;BME280;10913;51.992;9.228;2023-05-02T03:07:38;100460.75;;;13.22;95.37
21504;BME280;10913;51.992;9.228;2023-05-02T03:10:04;100459.91;;;13.20;96.20
21504;BME280;10913;51.992;9.228;2023-05-02T03:12:30;100460.78;;;13.19;96.71
21504;BME280;10913;51.992;9.228;2023-05-02T03:17:51;100460.88;;;13.16;96.64
21504;BME280;10913;51.992;9.228;2023-05-02T03:20:17;100465.28;;;13.16;96.72
21504;BME280;10913;51.992;9.228;2023-05-02T03:22:43;100465.28;;;13.16;97.33
21504;BME280;10913;51.992;9.228;2023-05-02T03:25:08;100473.25;;;13.14;97.68
21504;BME280;10913;51.992;9.228;2023-05-02T03:27:33;100477.66;;;13.14;97.78
21504;BME280;10913;51.992;9.228;2023-05-02T03:29:59;100476.78;;;13.13;98.15
21504;BME280;10913;51.992;9.228;2023-05-02T03:32:24;100477.69;;;13.10;98.38
21504;BME280;10913;51.992;9.228;2023-05-02T03:34:50;100478.63;;;13.08;98.46
21504;BME280;10913;51.992;9.228;2023-05-02T03:37:16;100478.63;;;13.06;98.90
21504;BME280;10913;51.992;9.228;2023-05-02T03:39:41;100478.63;;;13.06;98.49
21504;BME280;10913;51.992;9.228;2023-05-02T03:42:08;100480.41;;;13.06;98.68
21504;BME280;10913;51.992;9.228;2023-05-02T03:44:33;100483.06;;;13.06;98.75
21504;BME280;10913;51.992;9.228;2023-05-02T03:46:58;100487.47;;;13.07;98.74
21504;BME280;10913;51.992;9.228;2023-05-02T03:49:24;100483.03;;;13.09;98.42
21504;BME280;10913;51.992;9.228;2023-05-02T03:51:49;100489.22;;;13.08;98.43
21504;BME280;10913;51.992;9.228;2023-05-02T03:54:14;100485.69;;;13.09;97.68
21504;BME280;10913;51.992;9.228;2023-05-02T03:56:40;100494.53;;;13.08;96.87
21504;BME280;10913;51.992;9.228;2023-05-02T03:59:05;100487.44;;;13.10;95.96
21504;BME280;10913;51.992;9.228;2023-05-02T04:01:30;100496.25;;;13.12;96.29
21504;BME280;10913;51.992;9.228;2023-05-02T04:03:56;100495.44;;;13.07;98.18
21504;BME280;10913;51.992;9.228;2023-05-02T04:06:21;100495.44;;;13.07;96.52
21504;BME280;10913;51.992;9.228;2023-05-02T04:08:47;100502.50;;;13.08;96.46
21504;BME280;10913;51.992;9.228;2023-05-02T04:11:12;100501.59;;;13.09;96.42
21504;BME280;10913;51.992;9.228;2023-05-02T04:13:37;100511.31;;;13.10;96.25
21504;BME280;10913;51.992;9.228;2023-05-02T04:16:03;100512.19;;;13.09;96.54
21504;BME280;10913;51.992;9.228;2023-05-02T04:18:28;100514.00;;;13.05;96.15
21504;BME280;10913;51.992;9.228;2023-05-02T04:20:55;100517.53;;;13.06;96.31
21504;BME280;10913;51.992;9.228;2023-05-02T04:23:20;100524.59;;;13.07;96.58
21504;BME280;10913;51.992;9.228;2023-05-02T04:25:53;100526.41;;;13.05;96.94
21504;BME280;10913;51.992;9.228;2023-05-02T04:28:22;100525.56;;;13.01;97.27
21504;BME280;10913;51.992;9.228;2023-05-02T04:30:48;100541.47;;;13.01;96.72
21504;BME280;10913;51.992;9.228;2023-05-02T04:33:14;100528.22;;;13.00;97.37
21504;BME280;10913;51.992;9.228;2023-05-02T04:35:40;100538.91;;;12.97;96.85
21504;BME280;10913;51.992;9.228;2023-05-02T04:38:06;100542.47;;;12.93;96.13
21504;BME280;10913;51.992;9.228;2023-05-02T04:40:32;100552.22;;;12.92;95.98
21504;BME280;10913;51.992;9.228;2023-05-02T04:42:57;100557.50;;;12.92;96.51
21504;BME280;10913;51.992;9.228;2023-05-02T04:45:24;100554.88;;;12.91;97.27
21504;BME280;10913;51.992;9.228;2023-05-02T04:47:49;100561.94;;;12.92;96.53
21504;BME280;10913;51.992;9.228;2023-05-02T04:50:15;100558.44;;;12.90;97.06
21504;BME280;10913;51.992;9.228;2023-05-02T04:52:40;100560.22;;;12.88;97.19
21504;BME280;10913;51.992;9.228;2023-05-02T04:55:06;100562.88;;;12.86;97.34
21504;BME280;10913;51.992;9.228;2023-05-02T04:57:32;100569.94;;;12.89;97.41
21504;BME280;10913;51.992;9.228;2023-05-02T04:59:57;100579.63;;;12.90;97.25
21504;BME280;10913;51.992;9.228;2023-05-02T05:02:23;100577.88;;;12.89;98.18
21504;BME280;10913;51.992;9.228;2023-05-02T05:04:50;100589.34;;;12.91;97.34
21504;BME280;10913;51.992;9.228;2023-05-02T05:07:15;100583.16;;;12.92;97.37
21504;BME280;10913;51.992;9.228;2023-05-02T05:09:40;100587.59;;;12.91;97.50
21504;BME280;10913;51.992;9.228;2023-05-02T05:12:06;100593.78;;;12.90;97.48
21504;BME280;10913;51.992;9.228;2023-05-02T05:14:32;100600.81;;;12.93;97.23
21504;BME280;10913;51.992;9.228;2023-05-02T05:16:57;100595.53;;;12.91;97.70
21504;BME280;10913;51.992;9.228;2023-05-02T05:19:23;100597.31;;;12.89;98.37
21504;BME280;10913;51.992;9.228;2023-05-02T05:21:49;100596.44;;;12.89;98.44
21504;BME280;10913;51.992;9.228;2023-05-02T05:24:14;100601.75;;;12.87;98.35
21504;BME280;10913;51.992;9.228;2023-05-02T05:26:39;100606.19;;;12.87;99.45
21504;BME280;10913;51.992;9.228;2023-05-02T05:29:05;100609.72;;;12.86;100.00
21504;BME280;10913;51.992;9.228;2023-05-02T05:31:31;100606.22;;;12.82;99.93
21504;BME280;10913;51.992;9.228;2023-05-02T05:33:57;100609.78;;;12.81;99.73
21504;BME280;10913;51.992;9.228;2023-05-02T05:36:22;100619.50;;;12.82;100.00
21504;BME280;10913;51.992;9.228;2023-05-02T05:38:48;100621.22;;;12.85;100.00
21504;BME280;10913;51.992;9.228;2023-05-02T05:41:13;100621.22;;;12.85;100.00
21504;BME280;10913;51.992;9.228;2023-05-02T05:43:38;100632.69;;;12.87;99.68
21504;BME280;10913;51.992;9.228;2023-05-02T05:46:04;100637.13;;;12.88;99.79
21504;BME280;10913;51.992;9.228;2023-05-02T05:48:29;100639.75;;;12.88;100.00
21504;BME280;10913;51.992;9.228;2023-05-02T05:50:55;100635.34;;;12.88;99.97
21504;BME280;10913;51.992;9.228;2023-05-02T05:53:20;100637.13;;;12.86;99.55
21504;BME280;10913;51.992;9.228;2023-05-02T05:55:46;100638.00;;;12.88;99.93
21504;BME280;10913;51.992;9.228;2023-05-02T05:58:12;100643.25;;;12.93;98.69
21504;BME280;10913;51.992;9.228;2023-05-02T06:00:38;100652.06;;;12.98;97.72
21504;BME280;10913;51.992;9.228;2023-05-02T06:03:04;100650.19;;;13.03;97.82
21504;BME280;10913;51.992;9.228;2023-05-02T06:05:30;100650.19;;;13.03;98.72
21504;BME280;10913;51.992;9.228;2023-05-02T06:07:56;100653.81;;;12.99;98.37
21504;BME280;10913;51.992;9.228;2023-05-02T06:10:22;100659.97;;;12.99;98.51
21504;BME280;10913;51.992;9.228;2023-05-02T06:12:47;100676.81;;;12.97;98.91
21504;BME280;10913;51.992;9.228;2023-05-02T06:15:12;100686.59;;;12.89;100.00
21504;BME280;10913;51.992;9.228;2023-05-02T06:17:38;100697.34;;;12.75;96.35
21504;BME280;10913;51.992;9.228;2023-05-02T06:20:03;100705.41;;;12.61;97.36
21504;BME280;10913;51.992;9.228;2023-05-02T06:22:29;100712.69;;;12.36;98.14
21504;BME280;10913;51.992;9.228;2023-05-02T06:24:54;100725.13;;;12.24;98.63
21504;BME280;10913;51.992;9.228;2023-05-02T06:27:20;100727.84;;;12.15;99.14
21504;BME280;10913;51.992;9.228;2023-05-02T06:29:45;100731.41;;;12.09;98.75
21504;BME280;10913;51.992;9.228;2023-05-02T06:32:10;100736.72;;;12.07;98.63
21504;BME280;10913;51.992;9.228;2023-05-02T06:34:36;100741.13;;;12.10;98.83
21504;BME280;10913;51.992;9.228;2023-05-02T06:37:01;100749.06;;;12.07;98.99
21504;BME280;10913;51.992;9.228;2023-05-02T06:39:26;100749.97;;;12.01;98.51
21504;BME280;10913;51.992;9.228;2023-05-02T06:41:58;100756.19;;;11.99;98.19
21504;BME280;10913;51.992;9.228;2023-05-02T06:44:23;100766.75;;;12.00;96.60
21504;BME280;10913;51.992;9.228;2023-05-02T06:46:49;100772.09;;;11.93;96.58
21504;BME280;10913;51.992;9.228;2023-05-02T06:49:15;100777.44;;;11.87;96.94
21504;BME280;10913;51.992;9.228;2023-05-02T06:51:40;100789.78;;;11.86;96.94
21504;BME280;10913;51.992;9.228;2023-05-02T06:54:06;100792.44;;;11.85;97.00
21504;BME280;10913;51.992;9.228;2023-05-02T06:56:33;100789.78;;;11.88;97.09
21504;BME280;10913;51.992;9.228;2023-05-02T06:58:58;100802.13;;;11.90;97.04
21504;BME280;10913;51.992;9.228;2023-05-02T07:01:24;100808.31;;;11.85;96.53
21504;BME280;10913;51.992;9.228;2023-05-02T07:03:49;100810.09;;;11.81;96.47
21504;BME280;10913;51.992;9.228;2023-05-02T07:06:15;100817.16;;;11.79;96.47
21504;BME280;10913;51.992;9.228;2023-05-02T07:08:40;100814.50;;;11.71;96.44
21504;BME280;10913;51.992;9.228;2023-05-02T07:11:06;100822.47;;;11.64;96.94
21504;BME280;10913;51.992;9.228;2023-05-02T07:13:31;100826.00;;;11.64;97.00
21504;BME280;10913;51.992;9.228;2023-05-02T07:15:56;100824.22;;;11.62;96.09
21504;BME280;10913;51.992;9.228;2023-05-02T07:18:22;100844.56;;;11.55;95.83
21504;BME280;10913;51.992;9.228;2023-05-02T07:20:47;100838.38;;;11.46;95.64
21504;BME280;10913;51.992;9.228;2023-05-02T07:23:12;100837.53;;;11.37;95.98
21504;BME280;10913;51.992;9.228;2023-05-02T07:25:38;100853.41;;;11.31;95.82
21504;BME280;10913;51.992;9.228;2023-05-02T07:28:04;100851.63;;;11.32;96.21
21504;BME280;10913;51.992;9.228;2023-05-02T07:30:30;100857.78;;;11.40;95.59
21504;BME280;10913;51.992;9.228;2023-05-02T07:32:55;100859.56;;;11.49;94.93
21504;BME280;10913;51.992;9.228;2023-05-02T07:35:20;100858.66;;;11.53;94.62
21504;BME280;10913;51.992;9.228;2023-05-02T07:37:46;100863.97;;;11.57;93.78
21504;BME280;10913;51.992;9.228;2023-05-02T07:40:11;100864.81;;;11.64;92.61
21504;BME280;10913;51.992;9.228;2023-05-02T07:42:37;100870.09;;;11.62;92.43
21504;BME280;10913;51.992;9.228;2023-05-02T07:45:02;100879.81;;;11.76;91.48
21504;BME280;10913;51.992;9.228;2023-05-02T07:47:28;100876.31;;;11.77;91.15
21504;BME280;10913;51.992;9.228;2023-05-02T07:49:54;100882.44;;;11.86;90.59
21504;BME280;10913;51.992;9.228;2023-05-02T07:52:20;100886.84;;;11.92;89.96
21504;BME280;10913;51.992;9.228;2023-05-02T07:54:50;100888.63;;;11.93;90.08
21504;BME280;10913;51.992;9.228;2023-05-02T07:57:15;100900.09;;;11.86;90.46
21504;BME280;10913;51.992;9.228;2023-05-02T07:59:41;100899.22;;;11.81;90.73
21504;BME280;10913;51.992;9.228;2023-05-02T08:02:06;100901.00;;;11.77;91.00
21504;BME280;10913;51.992;9.228;2023-05-02T08:04:32;100908.03;;;11.80;91.50
21504;BME280;10913;51.992;9.228;2023-05-02T08:06:58;100909.84;;;11.76;91.06
21504;BME280;10913;51.992;9.228;2023-05-02T08:09:23;100908.03;;;11.70;91.51
21504;BME280;10913;51.992;9.228;2023-05-02T08:11:48;100919.50;;;11.71;91.13
21504;BME280;10913;51.992;9.228;2023-05-02T08:14:15;100930.97;;;11.62;91.28
21504;BME280;10913;51.992;9.228;2023-05-02T08:16:40;100924.81;;;11.56;91.37
21504;BME280;10913;51.992;9.228;2023-05-02T08:19:06;100938.06;;;11.57;91.21
21504;BME280;10913;51.992;9.228;2023-05-02T08:21:31;100938.94;;;11.55;90.76
21504;BME280;10913;51.992;9.228;2023-05-02T08:23:57;100942.47;;;11.52;90.34
21504;BME280;10913;51.992;9.228;2023-05-02T08:26:23;100950.41;;;11.49;90.38
21504;BME280;10913;51.992;9.228;2023-05-02T08:28:50;100951.28;;;11.47;89.96
21504;BME280;10913;51.992;9.228;2023-05-02T08:31:16;100945.97;;;11.48;89.78
21504;BME280;10913;51.992;9.228;2023-05-02T08:33:41;100953.03;;;11.45;89.92
21504;BME280;10913;51.992;9.228;2023-05-02T08:36:11;100952.16;;;11.43;90.24
21504;BME280;10913;51.992;9.228;2023-05-02T08:38:36;100958.34;;;11.38;90.13
21504;BME280;10913;51.992;9.228;2023-05-02T08:41:01;100959.22;;;11.37;89.87
21504;BME280;10913;51.992;9.228;2023-05-02T08:43:28;100967.16;;;11.34;89.24
21504;BME280;10913;51.992;9.228;2023-05-02T08:45:58;100969.78;;;11.39;89.52
21504;BME280;10913;51.992;9.228;2023-05-02T08:48:26;100968.06;;;11.38;89.41
21504;BME280;10913;51.992;9.228;2023-05-02T08:50:52;100975.06;;;11.40;89.14
21504;BME280;10913;51.992;9.228;2023-05-02T08:53:18;100979.50;;;11.46;88.60
21504;BME280;10913;51.992;9.228;2023-05-02T08:55:44;100983.00;;;11.40;88.78
21504;BME280;10913;51.992;9.228;2023-05-02T08:58:10;100991.84;;;11.39;88.84
21504;BME280;10913;51.992;9.228;2023-05-02T09:00:38;100998.03;;;11.37;87.05
21504;BME280;10913;51.992;9.228;2023-05-02T09:03:31;100998.88;;;11.28;88.10
21504;BME280;10913;51.992;9.228;2023-05-02T09:06:10;101008.56;;;11.23;88.42
21504;BME280;10913;51.992;9.228;2023-05-02T09:08:40;101009.44;;;11.25;88.18
21504;BME280;10913;51.992;9.228;2023-05-02T09:11:07;101021.78;;;11.22;87.78
21504;BME280;10913;51.992;9.228;2023-05-02T09:13:48;101028.81;;;11.20;88.34
21504;BME280;10913;51.992;9.228;2023-05-02T09:16:22;101019.16;;;11.25;87.72
21504;BME280;10913;51.992;9.228;2023-05-02T09:18:51;101027.97;;;11.25;87.41
21504;BME280;10913;51.992;9.228;2023-05-02T09:21:24;101028.84;;;11.24;87.57
21504;BME280;10913;51.992;9.228;2023-05-02T09:23:50;101027.97;;;11.27;87.63
21504;BME280;10913;51.992;9.228;2023-05-02T09:28:53;101040.31;;;11.28;87.83
21504;BME280;10913;51.992;9.228;2023-05-02T09:31:27;101035.94;;;11.31;87.23
21504;BME280;10913;51.992;9.228;2023-05-02T09:33:55;101040.34;;;11.32;87.07
21504;BME280;10913;51.992;9.228;2023-05-02T09:36:21;101043.84;;;11.28;87.03
21504;BME280;10913;51.992;9.228;2023-05-02T09:38:49;101049.16;;;11.30;87.05
21504;BME280;10913;51.992;9.228;2023-05-02T09:41:15;101041.22;;;11.28;86.57
21504;BME280;10913;51.992;9.228;2023-05-02T09:43:55;101053.53;;;11.23;86.57
21504;BME280;10913;51.992;9.228;2023-05-02T09:46:23;101060.59;;;11.18;86.62
21504;BME280;10913;51.992;9.228;2023-05-02T09:48:50;101066.75;;;11.23;86.29
21504;BME280;10913;51.992;9.228;2023-05-02T09:51:17;101061.50;;;11.29;85.89
21504;BME280;10913;51.992;9.228;2023-05-02T09:53:43;101063.28;;;11.33;85.17
21504;BME280;10913;51.992;9.228;2023-05-02T09:56:09;101063.28;;;11.35;84.95
21504;BME280;10913;51.992;9.228;2023-05-02T09:58:35;101067.69;;;11.40;85.25
21504;BME280;10913;51.992;9.228;2023-05-02T10:01:00;101062.41;;;11.47;85.68
21504;BME280;10913;51.992;9.228;2023-05-02T10:03:27;101065.97;;;11.56;85.63
21504;BME280;10913;51.992;9.228;2023-05-02T10:05:54;101071.25;;;11.61;84.74
21504;BME280;10913;51.992;9.228;2023-05-02T10:08:21;101074.78;;;11.63;84.46
21504;BME280;10913;51.992;9.228;2023-05-02T10:10:51;101071.25;;;11.67;83.55
21504;BME280;10913;51.992;9.228;2023-05-02T10:13:19;101080.97;;;11.68;83.38
21504;BME280;10913;51.992;9.228;2023-05-02T10:15:49;101077.44;;;11.69;83.89
21504;BME280;10913;51.992;9.228;2023-05-02T10:18:21;101082.72;;;11.66;83.51
21504;BME280;10913;51.992;9.228;2023-05-02T10:21:07;101088.00;;;11.61;83.28
21504;BME280;10913;51.992;9.228;2023-05-02T10:23:33;101088.03;;;11.58;83.51
21504;BME280;10913;51.992;9.228;2023-05-02T10:25:58;101089.78;;;11.58;83.39
21504;BME280;10913;51.992;9.228;2023-05-02T10:28:25;101088.88;;;11.62;83.36
21504;BME280;10913;51.992;9.228;2023-05-02T10:30:52;101088.00;;;11.63;83.53
21504;BME280;10913;51.992;9.228;2023-05-02T10:33:19;101080.09;;;11.72;83.83
21504;BME280;10913;51.992;9.228;2023-05-02T10:35:45;101088.06;;;11.86;83.49
21504;BME280;10913;51.992;9.228;2023-05-02T10:38:15;101090.75;;;11.98;82.95
21504;BME280;10913;51.992;9.228;2023-05-02T10:40:47;101099.56;;;11.95;81.97
21504;BME280;10913;51.992;9.228;2023-05-02T10:43:21;101091.63;;;11.89;81.40
21504;BME280;10913;51.992;9.228;2023-05-02T10:45:46;101097.78;;;11.82;81.85
21504;BME280;10913;51.992;9.228;2023-05-02T10:50:48;101105.69;;;11.71;81.50
21504;BME280;10913;51.992;9.228;2023-05-02T10:58:42;101118.94;;;11.73;80.70
21504;BME280;10913;51.992;9.228;2023-05-02T11:06:24;101128.59;;;11.63;81.83
21504;BME280;10913;51.992;9.228;2023-05-02T11:08:50;101128.63;;;11.69;81.80
21504;BME280;10913;51.992;9.228;2023-05-02T11:11:39;101126.91;;;11.76;81.62
21504;BME280;10913;51.992;9.228;2023-05-02T11:14:09;101135.72;;;11.81;81.55
21504;BME280;10913;51.992;9.228;2023-05-02T11:19:28;101130.47;;;11.96;80.32
21504;BME280;10913;51.992;9.228;2023-05-02T11:24:43;101131.34;;;12.11;80.00
21504;BME280;10913;51.992;9.228;2023-05-02T11:30:09;101136.66;;;12.23;80.15
21504;BME280;10913;51.992;9.228;2023-05-02T11:35:25;101126.94;;;12.28;78.96
21504;BME280;10913;51.992;9.228;2023-05-02T11:37:56;101126.94;;;12.32;78.75
21504;BME280;10913;51.992;9.228;2023-05-02T11:40:22;101128.72;;;12.36;79.31
21504;BME280;10913;51.992;9.228;2023-05-02T11:42:48;101119.00;;;12.37;78.91
21504;BME280;10913;51.992;9.228;2023-05-02T11:45:13;101128.72;;;12.36;78.98
21504;BME280;10913;51.992;9.228;2023-05-02T11:47:40;101130.47;;;12.37;78.62
21504;BME280;10913;51.992;9.228;2023-05-02T11:50:06;101133.09;;;12.42;78.53
21504;BME280;10913;51.992;9.228;2023-05-02T11:52:39;101126.91;;;12.46;78.71
21504;BME280;10913;51.992;9.228;2023-05-02T11:55:06;101133.09;;;12.53;78.17
21504;BME280;10913;51.992;9.228;2023-05-02T11:57:33;101141.03;;;12.62;77.52
21504;BME280;10913;51.992;9.228;2023-05-02T11:59:59;101134.84;;;12.70;76.53
21504;BME280;10913;51.992;9.228;2023-05-02T12:02:42;101145.41;;;12.80;76.56
21504;BME280;10913;51.992;9.228;2023-05-02T12:05:12;101138.31;;;12.88;75.33
21504;BME280;10913;51.992;9.228;2023-05-02T12:07:42;101145.41;;;12.95;75.63
21504;BME280;10913;51.992;9.228;2023-05-02T12:10:10;101143.59;;;13.03;75.02
21504;BME280;10913;51.992;9.228;2023-05-02T12:12:36;101149.78;;;13.02;74.00
21504;BME280;10913;51.992;9.228;2023-05-02T12:15:09;101156.84;;;13.04;73.60
21504;BME280;10913;51.992;9.228;2023-05-02T12:17:46;101155.13;;;12.96;74.33
21504;BME280;10913;51.992;9.228;2023-05-02T12:20:13;101147.16;;;12.94;74.07
21504;BME280;10913;51.992;9.228;2023-05-02T12:22:40;101154.25;;;12.97;73.87
21504;BME280;10913;51.992;9.228;2023-05-02T12:25:06;101159.53;;;12.98;74.71
21504;BME280;10913;51.992;9.228;2023-05-02T12:27:31;101171.88;;;13.07;74.59
21504;BME280;10913;51.992;9.228;2023-05-02T12:30:02;101171.88;;;13.05;73.32
21504;BME280;10913;51.992;9.228;2023-05-02T12:32:32;101166.56;;;12.99;72.11
21504;BME280;10913;51.992;9.228;2023-05-02T12:34:58;101179.00;;;12.87;71.61
21504;BME280;10913;51.992;9.228;2023-05-02T12:37:25;101170.16;;;12.83;72.34
21504;BME280;10913;51.992;9.228;2023-05-02T12:39:51;101177.22;;;12.86;72.36
21504;BME280;10913;51.992;9.228;2023-05-02T12:42:19;101179.88;;;12.92;71.91
21504;BME280;10913;51.992;9.228;2023-05-02T12:44:47;101186.94;;;12.99;71.53
21504;BME280;10913;51.992;9.228;2023-05-02T12:47:14;101197.56;;;12.99;71.90
21504;BME280;10913;51.992;9.228;2023-05-02T12:49:50;101194.00;;;13.00;71.70
21504;BME280;10913;51.992;9.228;2023-05-02T12:52:17;101191.34;;;13.00;71.40
21504;BME280;10913;51.992;9.228;2023-05-02T12:54:43;101189.59;;;12.99;71.40
21504;BME280;10913;51.992;9.228;2023-05-02T12:57:10;101193.13;;;12.93;70.81
21504;BME280;10913;51.992;9.228;2023-05-02T12:59:45;101190.50;;;12.90;70.90
21504;BME280;10913;51.992;9.228;2023-05-02T13:02:10;101194.91;;;12.87;70.73
21504;BME280;10913;51.992;9.228;2023-05-02T13:04:36;101194.03;;;12.82;70.40
21504;BME280;10913;51.992;9.228;2023-05-02T13:07:03;101197.59;;;12.77;71.09
21504;BME280;10913;51.992;9.228;2023-05-02T13:09:29;101191.38;;;12.85;71.11
21504;BME280;10913;51.992;9.228;2023-05-02T13:11:54;101196.69;;;12.92;71.60
21504;BME280;10913;51.992;9.228;2023-05-02T13:14:21;101192.25;;;12.97;71.47
21504;BME280;10913;51.992;9.228;2023-05-02T13:16:48;101194.00;;;13.03;70.32
21504;BME280;10913;51.992;9.228;2023-05-02T13:19:13;101195.75;;;13.01;70.05
21504;BME280;10913;51.992;9.228;2023-05-02T13:21:39;101200.22;;;12.99;69.79
21504;BME280;10913;51.992;9.228;2023-05-02T13:24:05;101204.63;;;12.97;69.77
21504;BME280;10913;51.992;9.228;2023-05-02T13:26:30;101207.28;;;12.95;69.97
21504;BME280;10913;51.992;9.228;2023-05-02T13:28:56;101205.50;;;12.96;69.55
21504;BME280;10913;51.992;9.228;2023-05-02T13:31:21;101203.75;;;12.92;68.79
21504;BME280;10913;51.992;9.228;2023-05-02T13:33:46;101208.13;;;13.02;69.32
21504;BME280;10913;51.992;9.228;2023-05-02T13:36:12;101203.72;;;13.10;69.04
21504;BME280;10913;51.992;9.228;2023-05-02T13:38:37;101208.13;;;13.20;68.50
21504;BME280;10913;51.992;9.228;2023-05-02T13:41:04;101210.75;;;13.32;68.22
21504;BME280;10913;51.992;9.228;2023-05-02T13:43:30;101216.00;;;13.41;68.10